Terminal Aerodrome Forecast
Issued by NWS Charleston, WV

Current Version | Previous Version | Graphics & Text | Print | Product List | Glossary On
Versions: 1 2 3 4 5 6 7 8 9 10 11 12 13 14 15 16 17 18 19 20 21 22 23 24 25 26
842
FTUS41 KRLX 191739
TAFPKB
TAF
KPKB 191739Z 1918/2018 VRB03KT P6SM OVC012
     FM192000 VRB03KT P6SM SCT020 BKN200
     FM192200 VRB03KT P6SM BKN200
     FM200400 VRB03KT P6SM BKN080 OVC200
     FM200800 11004KT 4SM -SHRA BR OVC035
     FM201100 15005KT 3SM -RA BR OVC015=

USA.gov is the U.S. government's official web portal to all federal, state and local government web resources and services.